Curtis, AR

4:32 PM CDT on September 22, 2014 (GMT -0500)
Harrell | Change Station
CLOSE
Current Station
Airport
Location: Camden,
Elevation: 131 ft
Nearby Weather Stations

Elev 131 ft 33.62 °N, 92.76 °W | Updated 17 minutes ago

Clear
Clear
82 °F
Feels Like 82 °F
N
9
Wind Variable Wind from NE

Today
High -- | Low -- °F
--% Chance of Precip.
Yesterday
High -- | Low -- °F
Precip. -- in
7:00 AM 7:09 PM
Waning Crescent, 2% visible
Pressure 30.14 in
Visibility 10.0 miles
Clouds Clear
Dew Point 50 °F
Humidity 32%
Rainfall 0.00 in
Snow Depth Not available.
UV 4 out of 12
Pollen 10.20 out of 12
Air Quality Not available.
Flu Activity Not available.
METAR KCDH 222115Z AUTO 04008KT 10SM CLR 28/10 A3014 RMK AO2

More Conditions Fewer Conditions

Pressure 30.14 in
Visibility 10.0 miles
Clouds Clear
Dew Point 50 °F
Humidity 32%
Rainfall 0.00 in
Snow Depth Not available.
UV 4 out of 12
Pollen 10.20 out of 12
Air Quality Not available.
Flu Activity Not available.
METAR KCDH 222115Z AUTO 04008KT 10SM CLR 28/10 A3014 RMK AO2

More Conditions Fewer Conditions

10-Day Weather Forecast

Almanac

Astronomy

Sep. 22, 2014 Rise Set
Actual Time 7:00 AM CDT 7:09 PM CDT
Civil Twilight 6:35 AM CDT 7:34 PM CDT
Nautical Twilight 6:06 AM CDT 8:03 PM CDT
Astronomical Twilight 5:36 AM CDT 8:32 PM CDT
Moon 5:32 AM CDT 6:15 PM CDT
Length of Visible Light 12h 58m
Length of Day
12h 08m
Tomorrow will be 2m 6s shorter.
Waning Crescent, 2% of the Moon is Illuminated
Today
Waning Crescent
Sep 24
New
Oct 1
First Quarter
Oct 8
Full
Oct 15
Last Quarter

Today's Extremes

State Highs State Lows

Community

WunderPhotos

Upload Photos

1,755,537 photos uploaded!

WunderBlogs® & News

Nearby

Snow Depth

Station Depth Elevation
No new snow has been reported.

Earthquake Activity

City Distance Mag. Time & Date
No recent earthquake activity has been reported nearby.
Minimum magnitude displayed is 2.5.

Coastal Water Temperatures

Place Temperature
No Stations Reporting

Nearby Weather Stations